sensor_id;sensor_type;location;lat;lon;timestamp;P1;durP1;ratioP1;P2;durP2;ratioP2
31686;SDS011;18285;51.330;4.946;2023-07-28T00:13:44;1.60;;;0.93;;
31686;SDS011;18285;51.330;4.946;2023-07-28T00:37:55;1.77;;;1.00;;
31686;SDS011;18285;51.330;4.946;2023-07-28T01:02:06;1.47;;;1.10;;
31686;SDS011;18285;51.330;4.946;2023-07-28T01:26:17;1.50;;;0.93;;
31686;SDS011;18285;51.330;4.946;2023-07-28T01:50:55;1.42;;;1.00;;
31686;SDS011;18285;51.330;4.946;2023-07-28T02:15:06;1.80;;;1.17;;
31686;SDS011;18285;51.330;4.946;2023-07-28T02:39:17;1.02;;;0.75;;
31686;SDS011;18285;51.330;4.946;2023-07-28T03:03:28;1.20;;;1.10;;
31686;SDS011;18285;51.330;4.946;2023-07-28T03:27:38;2.13;;;1.47;;
31686;SDS011;18285;51.330;4.946;2023-07-28T03:51:49;2.23;;;2.03;;
31686;SDS011;18285;51.330;4.946;2023-07-28T04:16:00;2.30;;;2.10;;
31686;SDS011;18285;51.330;4.946;2023-07-28T04:40:11;2.47;;;2.20;;
31686;SDS011;18285;51.330;4.946;2023-07-28T05:04:22;3.17;;;2.90;;
31686;SDS011;18285;51.330;4.946;2023-07-28T05:28:33;2.93;;;2.60;;
31686;SDS011;18285;51.330;4.946;2023-07-28T05:52:45;2.65;;;2.40;;
31686;SDS011;18285;51.330;4.946;2023-07-28T06:16:56;2.38;;;2.17;;
31686;SDS011;18285;51.330;4.946;2023-07-28T06:41:07;3.03;;;2.30;;
31686;SDS011;18285;51.330;4.946;2023-07-28T07:05:18;2.27;;;2.10;;
31686;SDS011;18285;51.330;4.946;2023-07-28T07:29:28;2.47;;;2.00;;
31686;SDS011;18285;51.330;4.946;2023-07-28T07:53:39;2.30;;;2.10;;
31686;SDS011;18285;51.330;4.946;2023-07-28T08:17:50;4.20;;;1.60;;
31686;SDS011;18285;51.330;4.946;2023-07-28T08:42:01;2.30;;;1.43;;
31686;SDS011;18285;51.330;4.946;2023-07-28T09:06:12;1.98;;;1.10;;
31686;SDS011;18285;51.330;4.946;2023-07-28T09:30:24;1.35;;;1.00;;
31686;SDS011;18285;51.330;4.946;2023-07-28T10:18:53;0.80;;;0.80;;
31686;SDS011;18285;51.330;4.946;2023-07-28T10:43:04;1.08;;;0.70;;
31686;SDS011;18285;51.330;4.946;2023-07-28T11:07:15;2.17;;;0.60;;
31686;SDS011;18285;51.330;4.946;2023-07-28T11:31:26;1.00;;;0.70;;
31686;SDS011;18285;51.330;4.946;2023-07-28T11:55:39;3.10;;;0.77;;
31686;SDS011;18285;51.330;4.946;2023-07-28T12:44:24;0.40;;;0.40;;
31686;SDS011;18285;51.330;4.946;2023-07-28T13:08:35;0.97;;;0.70;;
31686;SDS011;18285;51.330;4.946;2023-07-28T13:32:46;0.63;;;0.60;;
31686;SDS011;18285;51.330;4.946;2023-07-28T13:56:56;0.90;;;0.50;;
31686;SDS011;18285;51.330;4.946;2023-07-28T14:21:07;2.53;;;0.60;;
31686;SDS011;18285;51.330;4.946;2023-07-28T14:45:18;1.53;;;0.80;;
31686;SDS011;18285;51.330;4.946;2023-07-28T15:09:30;1.42;;;0.80;;
31686;SDS011;18285;51.330;4.946;2023-07-28T15:33:41;1.63;;;0.90;;
31686;SDS011;18285;51.330;4.946;2023-07-28T15:57:52;4.77;;;1.60;;
31686;SDS011;18285;51.330;4.946;2023-07-28T16:22:02;3.93;;;2.10;;
31686;SDS011;18285;51.330;4.946;2023-07-28T16:46:14;1.50;;;1.20;;
31686;SDS011;18285;51.330;4.946;2023-07-28T17:10:24;2.00;;;1.10;;
31686;SDS011;18285;51.330;4.946;2023-07-28T17:34:36;2.03;;;1.10;;
31686;SDS011;18285;51.330;4.946;2023-07-28T17:58:47;1.63;;;1.30;;
31686;SDS011;18285;51.330;4.946;2023-07-28T18:22:57;2.63;;;1.50;;
31686;SDS011;18285;51.330;4.946;2023-07-28T18:47:08;2.17;;;1.20;;
31686;SDS011;18285;51.330;4.946;2023-07-28T19:11:18;2.47;;;1.00;;
31686;SDS011;18285;51.330;4.946;2023-07-28T19:35:29;7.10;;;1.83;;
31686;SDS011;18285;51.330;4.946;2023-07-28T19:59:40;5.80;;;1.93;;
31686;SDS011;18285;51.330;4.946;2023-07-28T20:23:51;3.40;;;1.67;;
31686;SDS011;18285;51.330;4.946;2023-07-28T20:48:01;4.10;;;2.13;;
31686;SDS011;18285;51.330;4.946;2023-07-28T21:12:12;6.97;;;2.70;;
31686;SDS011;18285;51.330;4.946;2023-07-28T21:36:23;3.63;;;2.23;;
31686;SDS011;18285;51.330;4.946;2023-07-28T22:00:34;2.78;;;2.00;;
31686;SDS011;18285;51.330;4.946;2023-07-28T22:24:45;2.37;;;1.90;;
31686;SDS011;18285;51.330;4.946;2023-07-28T22:48:55;2.40;;;1.87;;
31686;SDS011;18285;51.330;4.946;2023-07-28T23:13:06;3.17;;;2.27;;
31686;SDS011;18285;51.330;4.946;2023-07-28T23:37:17;5.00;;;2.33;;
